createdAt,value
2019-05-11T00:00:12.658Z,11.33
2019-05-11T00:02:43.573Z,13.73
2019-05-11T00:05:23.387Z,9.93
2019-05-11T00:07:53.125Z,11.93
2019-05-11T00:10:23.829Z,9.47
2019-05-11T00:12:55.348Z,10.83
2019-05-11T00:15:39.024Z,14.67
2019-05-11T00:18:08.733Z,13.00
2019-05-11T00:20:52.647Z,12.30
2019-05-11T00:23:39.200Z,11.83
2019-05-11T00:26:10.663Z,11.13
2019-05-11T00:28:40.462Z,10.27
2019-05-11T00:31:16.843Z,14.03
2019-05-11T00:33:55.000Z,9.93
2019-05-11T00:36:29.023Z,11.63
2019-05-11T00:38:59.523Z,13.50
2019-05-11T00:41:33.219Z,14.13
2019-05-11T00:44:11.185Z,10.20
2019-05-11T00:46:42.150Z,13.00
2019-05-11T00:49:13.557Z,12.17
2019-05-11T00:51:43.038Z,14.60
2019-05-11T00:54:31.052Z,13.23
2019-05-11T00:57:00.521Z,14.13
2019-05-11T00:59:29.997Z,12.03
2019-05-11T01:02:08.701Z,12.47
2019-05-11T01:04:38.207Z,10.87
2019-05-11T01:07:10.801Z,10.97
2019-05-11T01:09:43.176Z,12.87
2019-05-11T01:12:12.841Z,10.20
2019-05-11T01:14:42.349Z,10.37
2019-05-11T01:17:14.571Z,12.90
2019-05-11T01:19:43.987Z,13.90
2019-05-11T01:22:14.657Z,12.63
2019-05-11T01:24:56.061Z,12.07
2019-05-11T01:27:27.523Z,10.50
2019-05-11T01:30:01.495Z,12.30
2019-05-11T01:32:30.879Z,12.10
2019-05-11T01:35:03.335Z,10.43
2019-05-11T01:37:33.222Z,12.63
2019-05-11T01:40:20.547Z,13.30
2019-05-11T01:43:11.001Z,12.17
2019-05-11T01:45:40.507Z,12.50
2019-05-11T01:48:12.406Z,10.93
2019-05-11T01:50:42.046Z,13.33
2019-05-11T01:53:12.560Z,11.87
2019-05-11T01:55:42.073Z,12.13
2019-05-11T01:58:23.346Z,13.10
2019-05-11T02:00:58.844Z,13.08
2019-05-11T02:03:32.617Z,16.50
2019-05-11T02:06:03.179Z,9.90
2019-05-11T02:08:32.740Z,10.33
2019-05-11T02:11:15.358Z,13.60
2019-05-11T02:13:52.841Z,12.43
2019-05-11T02:16:29.997Z,11.77
2019-05-11T02:18:59.488Z,10.83
2019-05-11T02:21:31.472Z,9.93
2019-05-11T02:24:01.420Z,12.73
2019-05-11T02:26:32.877Z,10.43
2019-05-11T02:29:22.778Z,11.90
2019-05-11T02:32:13.134Z,9.73
2019-05-11T02:34:44.648Z,13.50
2019-05-11T02:37:22.760Z,14.43
2019-05-11T02:39:52.824Z,13.53
2019-05-11T02:42:28.164Z,13.30
2019-05-11T02:45:34.750Z,14.27
2019-05-11T02:48:04.170Z,14.30
2019-05-11T02:50:37.876Z,12.83
2019-05-11T02:53:08.271Z,13.80
2019-05-11T02:55:39.186Z,15.40
2019-05-11T02:58:12.747Z,9.47
2019-05-11T03:00:43.953Z,13.90
2019-05-11T03:03:15.365Z,14.17
2019-05-11T03:05:53.338Z,10.53
2019-05-11T03:08:29.911Z,12.17
2019-05-11T03:11:00.801Z,13.90
2019-05-11T03:13:34.582Z,14.57
2019-05-11T03:16:05.974Z,10.77
2019-05-11T03:18:36.546Z,15.67
2019-05-11T03:21:07.750Z,9.70
2019-05-11T03:23:40.583Z,11.53
2019-05-11T03:26:11.132Z,12.30
2019-05-11T03:28:44.409Z,16.33
2019-05-11T03:31:17.610Z,12.77
2019-05-11T03:33:47.203Z,10.53
2019-05-11T03:36:18.618Z,9.20
2019-05-11T03:39:07.461Z,11.17
2019-05-11T03:41:46.812Z,10.17
2019-05-11T03:44:24.510Z,10.65
2019-05-11T03:46:54.973Z,10.37
2019-05-11T03:49:24.526Z,10.37
2019-05-11T03:51:55.940Z,16.47
2019-05-11T03:54:25.645Z,10.67
2019-05-11T03:57:01.431Z,12.10
2019-05-11T03:59:39.814Z,11.23
2019-05-11T04:02:15.220Z,11.37
2019-05-11T04:04:46.456Z,10.23
2019-05-11T04:07:18.677Z,10.47
2019-05-11T04:09:53.146Z,8.77
2019-05-11T04:12:34.696Z,9.57
2019-05-11T04:15:12.959Z,12.23
2019-05-11T04:17:42.462Z,10.90
2019-05-11T04:20:15.073Z,9.30
2019-05-11T04:22:59.053Z,11.27
2019-05-11T04:25:29.868Z,10.00
2019-05-11T04:28:06.422Z,7.47
2019-05-11T04:30:38.702Z,10.82
2019-05-11T04:33:11.975Z,8.53
2019-05-11T04:35:43.382Z,9.43
2019-05-11T04:38:28.592Z,12.37
2019-05-11T04:41:01.091Z,13.17
2019-05-11T04:43:39.182Z,10.87
2019-05-11T04:46:16.886Z,9.60
2019-05-11T04:48:46.416Z,9.40
2019-05-11T04:51:15.921Z,11.83
2019-05-11T04:53:45.556Z,9.90
2019-05-11T04:56:16.865Z,10.37
2019-05-11T04:58:48.829Z,11.43
2019-05-11T05:01:18.739Z,9.20
2019-05-11T05:03:54.239Z,11.00
2019-05-11T05:06:24.545Z,10.87
2019-05-11T05:08:58.299Z,11.83
2019-05-11T05:11:30.741Z,9.80
2019-05-11T05:14:01.886Z,12.33
2019-05-11T05:16:31.678Z,7.80
2019-05-11T05:21:48.945Z,8.57
2019-05-11T05:24:19.702Z,10.90
2019-05-11T05:26:52.574Z,11.20
2019-05-11T05:29:22.164Z,10.23
2019-05-11T05:31:54.178Z,9.40
2019-05-11T05:34:23.666Z,12.87
2019-05-11T05:36:55.194Z,10.30
2019-05-11T05:39:24.823Z,11.43
2019-05-11T05:41:57.294Z,9.95
2019-05-11T05:45:07.172Z,9.70
2019-05-11T05:47:57.037Z,10.13
2019-05-11T05:50:31.411Z,11.60
2019-05-11T05:53:02.091Z,11.00
2019-05-11T05:55:33.207Z,9.73
2019-05-11T05:58:04.411Z,6.13
2019-05-11T06:00:34.973Z,9.73
2019-05-11T06:03:06.208Z,10.57
2019-05-11T06:09:08.331Z,8.80
2019-05-11T06:11:37.748Z,11.20
2019-05-11T06:14:07.675Z,13.43
2019-05-11T06:16:40.442Z,8.87
2019-05-11T06:19:12.355Z,8.87
2019-05-11T06:21:42.027Z,11.90
2019-05-11T06:24:11.853Z,8.93
2019-05-11T06:26:41.873Z,9.67
2019-05-11T06:29:21.269Z,11.53
2019-05-11T06:31:48.496Z,9.73
2019-05-11T06:34:19.300Z,11.13
2019-05-11T06:36:50.547Z,8.90
2019-05-11T06:39:21.727Z,8.77
2019-05-11T06:41:52.880Z,5.90
2019-05-11T06:44:22.365Z,8.70
2019-05-11T06:46:55.518Z,8.97
2019-05-11T06:49:25.130Z,7.30
2019-05-11T06:51:54.725Z,7.80
2019-05-11T06:54:25.648Z,7.00
2019-05-11T06:56:55.030Z,9.47
2019-05-11T06:59:24.454Z,7.97
2019-05-11T07:01:56.458Z,9.20
2019-05-11T07:04:27.056Z,6.20
2019-05-11T07:06:56.477Z,9.15
2019-05-11T07:09:28.235Z,9.43
2019-05-11T07:11:57.815Z,5.87
2019-05-11T07:14:29.172Z,10.48
2019-05-11T07:16:58.725Z,6.30
2019-05-11T07:19:29.955Z,7.20
2019-05-11T07:21:59.473Z,7.33
2019-05-11T07:24:30.991Z,9.33
2019-05-11T07:27:00.499Z,4.53
2019-05-11T07:29:30.003Z,8.87
2019-05-11T07:32:06.235Z,7.47
2019-05-11T07:34:31.811Z,6.73
2019-05-11T07:37:01.693Z,6.28
2019-05-11T07:39:31.232Z,8.55
2019-05-11T07:42:00.843Z,4.85
2019-05-11T07:44:37.828Z,7.87
2019-05-11T07:47:04.358Z,6.58
2019-05-11T07:49:38.201Z,7.57
2019-05-11T07:52:10.739Z,7.87
2019-05-11T07:54:40.247Z,5.27
2019-05-11T07:57:09.933Z,5.10
2019-05-11T07:59:40.944Z,7.83
2019-05-11T08:02:10.722Z,7.23
2019-05-11T08:04:40.210Z,5.30
2019-05-11T08:07:11.125Z,6.77
2019-05-11T08:09:42.415Z,6.53
2019-05-11T08:12:11.856Z,6.43
2019-05-11T08:14:56.453Z,5.00
2019-05-11T08:17:12.675Z,6.00
2019-05-11T08:19:42.192Z,5.10
2019-05-11T08:22:13.260Z,6.37
2019-05-11T08:24:42.913Z,5.30
2019-05-11T08:27:14.500Z,5.07
2019-05-11T08:29:48.570Z,6.13
2019-05-11T08:32:19.304Z,5.37
2019-05-11T08:34:49.149Z,4.67
2019-05-11T08:37:19.010Z,6.47
2019-05-11T08:39:49.073Z,20.90
2019-05-11T08:42:19.718Z,9.50
2019-05-11T08:44:49.360Z,5.33
2019-05-11T08:47:21.924Z,4.80
2019-05-11T08:49:52.659Z,6.17
2019-05-11T08:52:22.089Z,4.70
2019-05-11T08:54:51.974Z,7.50
2019-05-11T08:57:23.103Z,3.40
2019-05-11T08:59:55.079Z,4.73
2019-05-11T09:02:27.799Z,10.70
2019-05-11T09:04:58.877Z,4.97
2019-05-11T09:07:28.569Z,5.33
2019-05-11T09:09:58.702Z,4.35
2019-05-11T09:12:31.054Z,5.15
2019-05-11T09:15:00.666Z,5.78
2019-05-11T09:17:32.299Z,4.85
2019-05-11T09:20:01.699Z,5.73
2019-05-11T09:22:31.104Z,5.17
2019-05-11T09:25:00.624Z,4.05
2019-05-11T09:27:31.182Z,6.33
2019-05-11T09:30:00.608Z,5.60
2019-05-11T09:32:30.487Z,6.40
2019-05-11T09:34:59.951Z,6.60
2019-05-11T09:37:29.353Z,6.60
2019-05-11T09:39:58.851Z,6.25
2019-05-11T09:42:31.898Z,7.10
2019-05-11T09:45:01.403Z,5.87
2019-05-11T09:47:31.129Z,8.63
2019-05-11T09:50:00.577Z,6.90
2019-05-11T09:52:32.677Z,4.10
2019-05-11T09:55:04.206Z,4.95
2019-05-11T09:57:37.528Z,5.90
2019-05-11T10:00:08.753Z,8.63
2019-05-11T10:02:39.681Z,6.47
2019-05-11T10:05:12.749Z,7.37
2019-05-11T10:07:42.288Z,7.03
2019-05-11T10:10:13.353Z,5.47
2019-05-11T10:12:43.966Z,6.57
2019-05-11T10:15:15.210Z,4.80
2019-05-11T10:17:48.310Z,6.60
2019-05-11T10:20:20.118Z,6.03
2019-05-11T10:22:51.114Z,3.97
2019-05-11T10:25:23.736Z,7.63
2019-05-11T10:27:53.195Z,5.70
2019-05-11T10:30:23.972Z,6.00
2019-05-11T10:32:53.712Z,4.77
2019-05-11T10:35:24.928Z,4.40
2019-05-11T10:37:54.406Z,6.97
2019-05-11T10:40:28.133Z,3.93
2019-05-11T10:42:58.965Z,4.47
2019-05-11T10:45:29.195Z,5.27
2019-05-11T10:48:01.182Z,4.22
2019-05-11T10:50:30.619Z,5.10
2019-05-11T10:53:01.121Z,5.33
2019-05-11T10:55:30.695Z,5.27
2019-05-11T10:58:03.733Z,4.13
2019-05-11T11:00:34.249Z,4.83
2019-05-11T11:03:05.519Z,3.85
2019-05-11T11:05:34.965Z,3.97
2019-05-11T11:08:04.541Z,5.40
2019-05-11T11:10:34.283Z,4.67
2019-05-11T11:13:03.919Z,7.25
2019-05-11T11:15:33.761Z,4.40
2019-05-11T11:18:05.415Z,5.20
2019-05-11T11:20:38.442Z,3.70
2019-05-11T11:23:08.833Z,7.00
2019-05-11T11:25:39.654Z,4.60
2019-05-11T11:28:09.068Z,4.72
2019-05-11T11:30:38.418Z,6.47
2019-05-11T11:33:08.109Z,4.47
2019-05-11T11:35:38.507Z,7.67
2019-05-11T11:38:08.685Z,6.63
2019-05-11T11:40:38.826Z,5.70
2019-05-11T11:43:09.639Z,7.08
2019-05-11T11:45:40.349Z,4.92
2019-05-11T11:48:13.639Z,7.13
2019-05-11T11:50:43.532Z,5.87
2019-05-11T11:53:13.949Z,4.27
2019-05-11T11:55:43.407Z,6.17
2019-05-11T11:58:12.876Z,5.13
2019-05-11T12:00:42.421Z,9.60
2019-05-11T12:03:13.668Z,6.37
2019-05-11T12:05:44.889Z,5.42
2019-05-11T12:08:14.428Z,4.60
2019-05-11T12:10:48.301Z,4.93
2019-05-11T12:13:20.503Z,5.77
2019-05-11T12:15:50.135Z,3.67
2019-05-11T12:18:19.947Z,7.90
2019-05-11T12:20:49.386Z,3.87
2019-05-11T12:23:18.891Z,5.47
2019-05-11T12:25:49.452Z,5.47
2019-05-11T12:28:20.664Z,7.30
2019-05-11T12:30:50.149Z,7.77
2019-05-11T12:33:21.206Z,6.07
2019-05-11T12:35:50.640Z,6.10
2019-05-11T12:38:23.314Z,5.53
2019-05-11T12:40:52.903Z,3.90
2019-05-11T12:43:23.412Z,5.40
2019-05-11T12:45:53.015Z,3.87
2019-05-11T12:48:22.663Z,6.17
2019-05-11T12:50:53.853Z,4.87
2019-05-11T12:53:23.377Z,4.17
2019-05-11T12:55:52.838Z,3.57
2019-05-11T12:58:22.261Z,3.47
2019-05-11T13:00:52.154Z,3.53
2019-05-11T13:03:22.252Z,3.67
2019-05-11T13:05:52.215Z,4.90
2019-05-11T13:08:24.127Z,5.97
2019-05-11T13:10:55.138Z,5.63
2019-05-11T13:13:24.555Z,4.53
2019-05-11T13:15:55.103Z,5.43
2019-05-11T13:18:24.667Z,4.97
2019-05-11T13:20:55.382Z,9.97
2019-05-11T13:23:25.069Z,8.20
2019-05-11T13:25:54.881Z,4.87
2019-05-11T13:28:24.499Z,6.83
2019-05-11T13:30:53.910Z,3.57
2019-05-11T13:33:23.382Z,6.60
2019-05-11T13:35:52.840Z,6.10
2019-05-11T13:38:22.272Z,4.27
2019-05-11T13:40:52.344Z,6.47
2019-05-11T13:43:22.399Z,5.72
2019-05-11T13:45:52.493Z,4.65
2019-05-11T13:48:23.640Z,5.27
2019-05-11T13:50:53.065Z,4.83
2019-05-11T13:53:24.293Z,4.27
2019-05-11T13:55:53.880Z,5.77
2019-05-11T13:58:27.626Z,5.40
2019-05-11T14:00:58.516Z,5.13
2019-05-11T14:03:28.469Z,6.03
2019-05-11T14:05:58.999Z,7.08
2019-05-11T14:08:30.241Z,4.57
2019-05-11T14:11:01.806Z,4.47
2019-05-11T14:13:31.443Z,3.65
2019-05-11T14:16:00.930Z,5.67
2019-05-11T14:18:30.796Z,7.70
2019-05-11T14:21:00.244Z,4.47
2019-05-11T14:23:31.564Z,4.80
2019-05-11T14:26:01.398Z,6.90
2019-05-11T14:28:30.882Z,5.90
2019-05-11T14:31:00.363Z,6.63
2019-05-11T14:33:29.835Z,4.50
2019-05-11T14:35:59.301Z,4.10
2019-05-11T14:38:29.047Z,3.93
2019-05-11T14:40:58.923Z,2.80
2019-05-11T14:43:28.342Z,4.12
2019-05-11T14:45:59.024Z,6.20
2019-05-11T14:48:30.240Z,5.83
2019-05-11T14:50:59.826Z,4.67
2019-05-11T14:53:29.261Z,4.35
2019-05-11T14:55:58.719Z,6.72
2019-05-11T14:58:28.174Z,4.97
2019-05-11T15:00:58.348Z,4.13
2019-05-11T15:03:28.876Z,3.58
2019-05-11T15:05:58.403Z,5.67
2019-05-11T15:08:28.622Z,5.07
2019-05-11T15:10:58.308Z,4.30
2019-05-11T15:13:28.782Z,5.33
2019-05-11T15:15:58.721Z,3.30
2019-05-11T15:18:37.916Z,4.35
2019-05-11T15:20:59.397Z,6.33
2019-05-11T15:23:28.806Z,7.62
2019-05-11T15:25:58.789Z,7.33
2019-05-11T15:28:28.591Z,6.90
2019-05-11T15:30:58.763Z,3.90
2019-05-11T15:33:28.610Z,3.25
2019-05-11T15:35:58.406Z,5.57
2019-05-11T15:38:28.533Z,5.00
2019-05-11T15:41:00.837Z,5.30
2019-05-11T15:43:31.283Z,14.47
2019-05-11T15:46:00.807Z,6.63
2019-05-11T15:48:30.379Z,5.10
2019-05-11T15:50:59.785Z,6.05
2019-05-11T15:53:29.200Z,4.37
2019-05-11T15:55:59.859Z,3.80
2019-05-11T15:58:29.512Z,3.03
2019-05-11T16:00:58.994Z,8.63
2019-05-11T16:03:28.638Z,3.17
2019-05-11T16:05:58.360Z,5.63
2019-05-11T16:08:28.334Z,4.93
2019-05-11T16:10:57.949Z,3.83
2019-05-11T16:13:28.514Z,6.40
2019-05-11T16:15:59.138Z,5.03
2019-05-11T16:18:28.687Z,5.83
2019-05-11T16:20:58.377Z,2.60
2019-05-11T16:23:28.370Z,6.17
2019-05-11T16:25:58.241Z,3.90
2019-05-11T16:28:30.660Z,4.67
2019-05-11T16:30:58.912Z,6.53
2019-05-11T16:33:28.459Z,5.77
2019-05-11T16:36:00.751Z,5.73
2019-05-11T16:38:29.149Z,5.13
2019-05-11T16:40:58.923Z,4.23
2019-05-11T16:43:28.324Z,4.23
2019-05-11T16:45:58.034Z,3.80
2019-05-11T16:48:27.761Z,5.07
2019-05-11T16:50:57.980Z,4.55
2019-05-11T16:53:28.478Z,4.70
2019-05-11T16:55:58.166Z,5.73
2019-05-11T16:58:27.955Z,3.77
2019-05-11T17:00:58.210Z,4.47
2019-05-11T17:03:28.120Z,4.30
2019-05-11T17:05:58.864Z,3.60
2019-05-11T17:08:28.707Z,4.35
2019-05-11T17:10:59.435Z,3.43
2019-05-11T17:13:29.121Z,2.72
2019-05-11T17:15:58.563Z,3.90
2019-05-11T17:18:28.563Z,3.27
2019-05-11T17:20:58.653Z,6.03
2019-05-11T17:23:30.770Z,3.77
2019-05-11T17:25:59.334Z,7.27
2019-05-11T17:28:28.734Z,4.67
2019-05-11T17:30:59.787Z,5.40
2019-05-11T17:33:29.306Z,5.55
2019-05-11T17:35:58.852Z,3.47
2019-05-11T17:38:28.318Z,3.83
2019-05-11T17:40:57.999Z,5.72
2019-05-11T17:43:28.049Z,4.50
2019-05-11T17:45:58.454Z,3.23
2019-05-11T17:48:28.424Z,4.30
2019-05-11T17:50:58.202Z,4.70
2019-05-11T17:53:28.628Z,5.10
2019-05-11T17:55:59.073Z,3.40
2019-05-11T17:58:28.490Z,4.05
2019-05-11T18:00:58.992Z,5.83
2019-05-11T18:03:28.634Z,5.00
2019-05-11T18:05:58.864Z,5.00
2019-05-11T18:08:30.839Z,3.83
2019-05-11T18:11:00.497Z,5.00
2019-05-11T18:13:29.900Z,5.73
2019-05-11T18:15:59.326Z,5.07
2019-05-11T18:18:29.284Z,4.30
2019-05-11T18:20:58.793Z,4.80
2019-05-11T18:23:28.470Z,3.27
2019-05-11T18:25:58.034Z,3.77
2019-05-11T18:28:29.034Z,6.67
2019-05-11T18:31:00.193Z,4.43
2019-05-11T18:33:29.875Z,7.33
2019-05-11T18:35:59.257Z,7.23
2019-05-11T18:38:28.649Z,7.63
2019-05-11T18:40:58.302Z,6.62
2019-05-11T18:43:28.167Z,5.23
2019-05-11T18:45:58.427Z,6.10
2019-05-11T18:48:29.040Z,6.17
2019-05-11T18:50:59.164Z,8.10
2019-05-11T18:53:30.531Z,5.87
2019-05-11T18:56:01.884Z,5.37
2019-05-11T18:58:31.292Z,5.83
2019-05-11T19:01:00.660Z,6.97
2019-05-11T19:03:30.114Z,9.18
2019-05-11T19:06:00.511Z,4.93
2019-05-11T19:08:31.068Z,5.53
2019-05-11T19:11:00.676Z,7.72
2019-05-11T19:13:32.001Z,5.20
2019-05-11T19:16:01.644Z,8.27
2019-05-11T19:18:31.251Z,6.62
2019-05-11T19:21:00.676Z,6.00
2019-05-11T19:23:30.031Z,5.43
2019-05-11T19:25:59.620Z,4.83
2019-05-11T19:28:30.106Z,7.33
2019-05-11T19:30:59.527Z,6.17
2019-05-11T19:33:30.200Z,7.65
2019-05-11T19:35:59.602Z,4.77
2019-05-11T19:38:29.033Z,9.03
2019-05-11T19:40:58.998Z,4.90
2019-05-11T19:43:32.730Z,8.40
2019-05-11T19:46:03.243Z,9.03
2019-05-11T19:48:33.234Z,7.62
2019-05-11T19:51:08.108Z,10.17
2019-05-11T19:53:35.828Z,7.00
2019-05-11T19:56:07.813Z,7.10
2019-05-11T19:58:42.218Z,6.60
2019-05-11T20:01:13.461Z,6.73
2019-05-11T20:03:44.002Z,7.87
2019-05-11T20:06:13.464Z,7.77
2019-05-11T20:08:43.162Z,5.87
2019-05-11T20:11:12.944Z,8.77
2019-05-11T20:13:44.214Z,9.87
2019-05-11T20:16:13.796Z,5.93
2019-05-11T20:18:43.241Z,4.60
2019-05-11T20:21:19.184Z,7.53
2019-05-11T20:23:43.808Z,10.97
2019-05-11T20:26:13.276Z,7.43
2019-05-11T20:28:42.656Z,5.10
2019-05-11T20:31:12.057Z,7.73
2019-05-11T20:33:41.890Z,5.80
2019-05-11T20:36:11.330Z,5.37
2019-05-11T20:38:40.733Z,7.17
2019-05-11T20:41:10.201Z,5.43
2019-05-11T20:43:39.621Z,6.90
2019-05-11T20:46:09.030Z,8.10
2019-05-11T20:48:38.551Z,6.63
2019-05-11T20:51:08.204Z,5.53
2019-05-11T20:53:38.711Z,5.75
2019-05-11T20:56:08.732Z,8.73
2019-05-11T20:58:59.567Z,7.53
2019-05-11T21:01:30.938Z,7.03
2019-05-11T21:04:01.341Z,9.93
2019-05-11T21:06:30.919Z,11.27
2019-05-11T21:09:01.581Z,5.70
2019-05-11T21:11:31.233Z,9.60
2019-05-11T21:14:00.647Z,7.23
2019-05-11T21:16:31.306Z,10.05
2019-05-11T21:19:01.857Z,6.67
2019-05-11T21:21:45.193Z,8.30
2019-05-11T21:24:04.890Z,5.80
2019-05-11T21:26:38.417Z,6.73
2019-05-11T21:29:08.721Z,7.20
2019-05-11T21:31:40.813Z,6.57
2019-05-11T21:34:12.599Z,7.63
2019-05-11T21:36:42.009Z,9.30
2019-05-11T21:39:11.685Z,6.47
2019-05-11T21:41:41.096Z,6.57
2019-05-11T21:44:11.542Z,8.60
2019-05-11T21:46:41.251Z,6.80
2019-05-11T21:49:10.760Z,9.47
2019-05-11T21:51:40.474Z,8.53
2019-05-11T21:54:10.031Z,7.72
2019-05-11T21:56:41.043Z,7.47
2019-05-11T21:59:11.549Z,8.73
2019-05-11T22:01:43.610Z,6.85
2019-05-11T22:04:14.776Z,7.03
2019-05-11T22:06:45.295Z,9.37
2019-05-11T22:09:18.583Z,7.93
2019-05-11T22:11:49.765Z,6.87
2019-05-11T22:14:19.291Z,7.27
2019-05-11T22:16:50.964Z,8.13
2019-05-11T22:19:22.360Z,8.33
2019-05-11T22:21:51.765Z,7.43
2019-05-11T22:24:24.620Z,6.77
2019-05-11T22:26:57.492Z,7.20
2019-05-11T22:29:28.703Z,8.13
2019-05-11T22:31:58.625Z,8.17
2019-05-11T22:34:29.847Z,6.47
2019-05-11T22:36:59.398Z,7.93
2019-05-11T22:39:29.296Z,7.33
2019-05-11T22:41:59.009Z,7.97
2019-05-11T22:44:31.270Z,6.00
2019-05-11T22:47:02.303Z,6.90
2019-05-11T22:49:32.992Z,9.57
2019-05-11T22:52:02.519Z,6.60
2019-05-11T22:54:32.339Z,7.27
2019-05-11T22:57:01.858Z,9.25
2019-05-11T22:59:31.474Z,6.80
2019-05-11T23:02:04.376Z,6.70
2019-05-11T23:04:33.869Z,6.83
2019-05-11T23:07:08.030Z,7.92
2019-05-11T23:09:38.298Z,8.23
2019-05-11T23:12:09.173Z,6.37
2019-05-11T23:14:38.772Z,6.00
2019-05-11T23:17:08.503Z,5.97
2019-05-11T23:19:38.262Z,4.62
2019-05-11T23:22:08.369Z,7.13
2019-05-11T23:24:39.034Z,7.77
2019-05-11T23:27:08.958Z,6.95
2019-05-11T23:29:40.320Z,8.67
2019-05-11T23:32:11.582Z,7.85
2019-05-11T23:34:42.300Z,6.77
2019-05-11T23:37:13.258Z,6.43
2019-05-11T23:39:42.743Z,8.17
2019-05-11T23:42:12.225Z,10.58
2019-05-11T23:44:41.734Z,6.43
2019-05-11T23:47:13.432Z,7.43
2019-05-11T23:49:43.867Z,8.13
2019-05-11T23:52:14.363Z,11.13
2019-05-11T23:54:45.456Z,9.00
2019-05-11T23:57:14.896Z,7.47
2019-05-11T23:59:47.765Z,8.33
